createdAt,value
2023-04-16T00:01:20.686Z,10.47
2023-04-16T00:03:49.019Z,11.80
2023-04-16T00:06:17.607Z,10.10
2023-04-16T00:08:46.082Z,14.73
2023-04-16T00:11:16.345Z,10.13
2023-04-16T00:13:44.627Z,13.23
2023-04-16T00:16:12.663Z,13.00
2023-04-16T00:18:40.911Z,11.77
2023-04-16T00:21:09.429Z,14.73
2023-04-16T00:23:37.971Z,12.57
2023-04-16T00:26:06.171Z,15.13
2023-04-16T00:28:36.053Z,12.93
2023-04-16T00:31:04.182Z,12.90
2023-04-16T00:33:32.488Z,11.77
2023-04-16T00:36:00.973Z,12.43
2023-04-16T00:38:30.526Z,11.87
2023-04-16T00:40:59.142Z,11.57
2023-04-16T00:43:28.316Z,11.87
2023-04-16T00:45:58.567Z,11.33
2023-04-16T00:48:28.063Z,12.90
2023-04-16T00:50:56.596Z,13.27
2023-04-16T00:53:25.474Z,10.57
2023-04-16T00:55:53.806Z,12.30
2023-04-16T00:58:21.958Z,12.73
2023-04-16T01:00:50.097Z,11.47
2023-04-16T01:03:20.040Z,13.40
2023-04-16T01:05:49.414Z,13.37
2023-04-16T01:08:18.928Z,12.97
2023-04-16T01:10:47.231Z,14.80
2023-04-16T01:13:15.655Z,13.67
2023-04-16T01:15:43.894Z,15.07
2023-04-16T01:18:16.216Z,14.33
2023-04-16T01:20:46.053Z,14.67
2023-04-16T01:23:14.444Z,14.47
2023-04-16T01:25:42.572Z,15.20
2023-04-16T01:28:10.750Z,13.83
2023-04-16T01:30:38.903Z,12.67
2023-04-16T01:33:08.063Z,15.97
2023-04-16T01:35:36.301Z,13.80
2023-04-16T01:38:07.858Z,11.30
2023-04-16T01:40:36.092Z,11.07
2023-04-16T01:43:04.443Z,10.83
2023-04-16T01:45:33.751Z,13.10
2023-04-16T01:48:02.416Z,11.37
2023-04-16T01:50:32.013Z,10.77
2023-04-16T01:53:02.004Z,13.70
2023-04-16T01:55:31.577Z,12.13
2023-04-16T01:57:59.697Z,12.23
2023-04-16T02:00:27.870Z,12.33
2023-04-16T02:02:56.429Z,11.97
2023-04-16T02:05:25.006Z,12.83
2023-04-16T02:07:53.446Z,13.60
2023-04-16T02:10:22.397Z,12.20
2023-04-16T02:12:51.843Z,14.50
2023-04-16T02:15:20.021Z,12.87
2023-04-16T02:17:48.944Z,12.70
2023-04-16T02:20:17.737Z,12.13
2023-04-16T02:22:45.878Z,14.00
2023-04-16T02:25:14.244Z,14.73
2023-04-16T02:27:42.363Z,14.90
2023-04-16T02:30:13.539Z,14.07
2023-04-16T02:32:41.833Z,16.13
2023-04-16T02:35:10.220Z,16.57
2023-04-16T02:37:40.823Z,26.57
2023-04-16T02:40:10.273Z,14.13
2023-04-16T02:42:38.232Z,16.17
2023-04-16T02:45:07.141Z,14.67
2023-04-16T02:47:36.833Z,15.43
2023-04-16T02:50:05.501Z,14.03
2023-04-16T02:52:34.073Z,13.33
2023-04-16T02:55:02.389Z,15.13
2023-04-16T02:57:30.812Z,13.87
2023-04-16T02:59:59.017Z,20.07
2023-04-16T03:02:27.433Z,16.87
2023-04-16T03:04:57.194Z,14.90
2023-04-16T03:07:25.942Z,15.07
2023-04-16T03:09:54.336Z,17.00
2023-04-16T03:12:22.408Z,18.30
2023-04-16T03:14:52.338Z,51.80
2023-04-16T03:17:20.590Z,16.37
2023-04-16T03:19:50.852Z,15.03
2023-04-16T03:22:20.701Z,12.83
2023-04-16T03:24:48.853Z,15.67
2023-04-16T03:27:16.860Z,14.17
2023-04-16T03:29:44.853Z,24.47
2023-04-16T03:32:13.766Z,16.97
2023-04-16T03:34:41.875Z,13.63
2023-04-16T03:37:12.130Z,14.07
2023-04-16T03:39:41.599Z,12.77
2023-04-16T03:42:09.764Z,13.23
2023-04-16T03:44:37.847Z,12.50
2023-04-16T03:47:06.221Z,12.40
2023-04-16T03:49:34.654Z,12.70
2023-04-16T03:52:02.957Z,13.20
2023-04-16T03:54:31.006Z,13.77
2023-04-16T03:57:01.042Z,13.50
2023-04-16T03:59:29.334Z,12.10
2023-04-16T04:01:57.466Z,12.10
2023-04-16T04:04:25.699Z,14.03
2023-04-16T04:06:53.908Z,14.10
2023-04-16T04:09:21.955Z,12.43
2023-04-16T04:11:50.091Z,12.53
2023-04-16T04:14:19.563Z,12.40
2023-04-16T04:16:47.720Z,12.30
2023-04-16T04:19:15.845Z,12.13
2023-04-16T04:21:44.017Z,11.77
2023-04-16T04:24:12.318Z,13.97
2023-04-16T04:26:40.379Z,13.00
2023-04-16T04:29:08.762Z,12.47
2023-04-16T04:31:38.738Z,13.60
2023-04-16T04:34:06.998Z,14.60
2023-04-16T04:36:35.249Z,12.87
2023-04-16T04:39:03.813Z,12.87
2023-04-16T04:41:31.870Z,16.10
2023-04-16T04:43:59.915Z,11.53
2023-04-16T04:46:27.996Z,12.93
2023-04-16T04:48:57.415Z,12.53
2023-04-16T04:51:27.123Z,12.30
2023-04-16T04:53:55.364Z,11.37
2023-04-16T04:56:23.431Z,12.60
2023-04-16T04:58:52.261Z,11.83
2023-04-16T05:01:20.459Z,12.93
2023-04-16T05:03:48.547Z,13.87
2023-04-16T05:06:18.340Z,15.00
2023-04-16T05:08:46.548Z,15.00
2023-04-16T05:11:14.838Z,13.10
2023-04-16T05:13:42.909Z,14.07
2023-04-16T05:16:11.568Z,13.20
2023-04-16T05:18:39.682Z,14.37
2023-04-16T05:21:07.855Z,13.67
2023-04-16T05:23:37.350Z,15.13
2023-04-16T05:26:05.778Z,14.57
2023-04-16T05:28:33.867Z,14.87
2023-04-16T05:31:01.916Z,15.73
2023-04-16T05:33:30.004Z,15.63
2023-04-16T05:35:58.222Z,14.33
2023-04-16T05:38:26.214Z,14.17
2023-04-16T05:40:55.706Z,15.00
2023-04-16T05:43:24.033Z,15.23
2023-04-16T05:45:52.123Z,15.00
2023-04-16T05:48:21.111Z,17.07
2023-04-16T05:50:50.235Z,14.77
2023-04-16T05:53:19.571Z,14.80
2023-04-16T05:55:47.995Z,17.40
2023-04-16T05:58:17.521Z,15.03
2023-04-16T06:00:45.750Z,16.80
2023-04-16T06:03:14.351Z,15.77
2023-04-16T06:05:42.977Z,13.37
2023-04-16T06:08:11.304Z,14.17
2023-04-16T06:10:39.505Z,15.37
2023-04-16T06:13:07.570Z,15.43
2023-04-16T06:15:37.257Z,14.10
2023-04-16T06:18:06.042Z,17.07
2023-04-16T06:20:34.414Z,14.37
2023-04-16T06:23:02.641Z,16.10
2023-04-16T06:25:30.720Z,12.20
2023-04-16T06:27:59.146Z,14.13
2023-04-16T06:30:27.398Z,13.53
2023-04-16T06:32:57.005Z,13.60
2023-04-16T06:35:25.403Z,13.03
2023-04-16T06:37:53.500Z,15.10
2023-04-16T06:40:21.768Z,14.40
2023-04-16T06:42:49.932Z,13.57
2023-04-16T06:45:18.113Z,13.80
2023-04-16T06:47:46.324Z,13.17
2023-04-16T06:50:15.952Z,12.17
2023-04-16T06:52:44.342Z,11.73
2023-04-16T06:55:13.389Z,12.77
2023-04-16T06:57:41.738Z,12.47
2023-04-16T07:00:10.664Z,9.40
2023-04-16T07:02:38.954Z,11.30
2023-04-16T07:05:08.977Z,10.37
2023-04-16T07:07:38.432Z,9.47
2023-04-16T07:10:07.363Z,10.37
2023-04-16T07:12:35.435Z,7.70
2023-04-16T07:15:03.824Z,9.10
2023-04-16T07:17:32.092Z,9.10
2023-04-16T07:20:00.322Z,6.90
2023-04-16T07:22:28.597Z,6.83
2023-04-16T07:24:58.609Z,6.87
2023-04-16T07:27:27.202Z,7.07
2023-04-16T07:29:56.041Z,6.33
2023-04-16T07:32:24.374Z,7.20
2023-04-16T07:34:52.496Z,6.70
2023-04-16T07:37:20.691Z,6.77
2023-04-16T07:39:49.193Z,7.53
2023-04-16T07:42:18.631Z,8.17
2023-04-16T07:44:47.223Z,7.80
2023-04-16T07:47:15.504Z,6.67
2023-04-16T07:49:44.142Z,8.00
2023-04-16T07:52:12.584Z,9.13
2023-04-16T07:54:40.909Z,8.43
2023-04-16T07:57:08.948Z,8.93
2023-04-16T07:59:38.466Z,9.33
2023-04-16T08:02:15.750Z,9.30
2023-04-16T08:04:44.661Z,10.50
2023-04-16T08:07:13.236Z,10.60
2023-04-16T08:09:49.620Z,12.40
2023-04-16T08:12:17.996Z,13.87
2023-04-16T08:14:47.972Z,16.67
2023-04-16T08:17:16.513Z,15.00
2023-04-16T08:19:45.560Z,14.60
2023-04-16T08:22:13.782Z,13.90
2023-04-16T08:24:41.848Z,18.10
2023-04-16T08:27:18.488Z,13.77
2023-04-16T08:29:48.596Z,13.97
2023-04-16T08:32:16.630Z,14.80
2023-04-16T08:34:44.824Z,16.17
2023-04-16T08:37:13.043Z,15.90
2023-04-16T08:39:41.496Z,14.43
2023-04-16T08:42:19.935Z,17.20
2023-04-16T08:44:50.538Z,17.20
2023-04-16T08:47:19.179Z,16.43
2023-04-16T08:49:47.293Z,13.33
2023-04-16T08:52:19.853Z,11.70
2023-04-16T08:54:56.680Z,12.63
2023-04-16T08:57:28.195Z,10.17
2023-04-16T08:59:59.540Z,9.30
2023-04-16T09:03:07.075Z,9.70
2023-04-16T09:05:36.302Z,11.23
2023-04-16T09:08:05.774Z,11.37
2023-04-16T09:10:34.538Z,9.00
2023-04-16T09:13:02.756Z,11.40
2023-04-16T09:15:34.001Z,10.67
2023-04-16T09:18:03.258Z,13.33
2023-04-16T09:20:31.646Z,13.07
2023-04-16T09:23:02.210Z,15.07
2023-04-16T09:25:34.646Z,11.80
2023-04-16T09:28:03.197Z,9.83
2023-04-16T09:30:33.518Z,10.67
2023-04-16T09:33:22.832Z,9.40
2023-04-16T09:35:53.227Z,8.40
2023-04-16T09:38:22.126Z,7.23
2023-04-16T09:41:06.627Z,9.03
2023-04-16T09:43:35.681Z,8.30
2023-04-16T09:46:08.134Z,12.10
2023-04-16T09:48:36.785Z,7.37
2023-04-16T09:51:08.079Z,7.33
2023-04-16T09:53:36.600Z,8.53
2023-04-16T09:56:07.658Z,8.10
2023-04-16T09:58:38.152Z,7.97
2023-04-16T10:01:10.263Z,5.73
2023-04-16T10:03:40.114Z,5.00
2023-04-16T10:06:18.184Z,5.30
2023-04-16T10:08:50.245Z,5.83
2023-04-16T10:11:19.114Z,8.17
2023-04-16T10:13:47.849Z,4.83
2023-04-16T10:16:18.496Z,5.30
2023-04-16T10:18:48.027Z,4.80
2023-04-16T10:21:16.474Z,5.87
2023-04-16T10:23:45.219Z,6.47
2023-04-16T10:26:13.554Z,6.47
2023-04-16T10:28:43.038Z,5.90
2023-04-16T10:31:11.311Z,6.63
2023-04-16T10:33:42.865Z,4.87
2023-04-16T10:36:12.525Z,5.20
2023-04-16T10:38:41.854Z,5.80
2023-04-16T10:41:10.200Z,4.30
2023-04-16T10:43:42.120Z,5.67
2023-04-16T10:46:24.098Z,4.70
2023-04-16T10:48:56.157Z,4.40
2023-04-16T10:51:31.554Z,6.47
2023-04-16T10:54:05.403Z,4.10
2023-04-16T10:56:34.668Z,5.50
2023-04-16T10:59:06.103Z,5.67
2023-04-16T11:01:36.422Z,4.63
2023-04-16T11:04:35.346Z,5.17
2023-04-16T11:07:05.846Z,4.23
2023-04-16T11:09:57.941Z,5.07
2023-04-16T11:12:29.069Z,4.50
2023-04-16T11:15:02.718Z,6.20
2023-04-16T11:17:33.048Z,6.57
2023-04-16T11:20:03.041Z,6.53
2023-04-16T11:22:31.666Z,6.70
2023-04-16T11:24:59.825Z,4.90
2023-04-16T11:27:27.943Z,4.67
2023-04-16T11:30:00.917Z,4.70
2023-04-16T11:32:29.648Z,4.50
2023-04-16T11:34:57.931Z,4.37
2023-04-16T11:37:35.267Z,6.20
2023-04-16T11:40:06.438Z,3.83
2023-04-16T11:42:37.228Z,4.70
2023-04-16T11:45:06.180Z,4.60
2023-04-16T11:47:34.633Z,4.50
2023-04-16T11:50:21.006Z,4.67
2023-04-16T11:52:51.535Z,4.17
2023-04-16T11:55:20.616Z,3.03
2023-04-16T11:57:49.897Z,5.00
2023-04-16T12:00:24.343Z,4.00
2023-04-16T12:02:55.071Z,4.20
2023-04-16T12:05:32.035Z,3.37
2023-04-16T12:08:03.307Z,3.67
2023-04-16T12:10:35.236Z,3.77
2023-04-16T12:13:14.336Z,3.40
2023-04-16T12:15:49.754Z,3.57
2023-04-16T12:18:18.005Z,2.80
2023-04-16T12:20:46.827Z,3.80
2023-04-16T12:23:26.582Z,3.27
2023-04-16T12:25:55.553Z,4.27
2023-04-16T12:28:32.049Z,2.23
2023-04-16T12:31:00.652Z,3.23
2023-04-16T12:33:28.895Z,2.30
2023-04-16T12:35:57.582Z,4.00
2023-04-16T12:38:27.643Z,3.37
2023-04-16T12:40:57.340Z,2.20
2023-04-16T12:43:26.483Z,3.67
2023-04-16T12:45:54.676Z,2.10
2023-04-16T12:48:22.728Z,2.53
2023-04-16T12:50:50.758Z,2.77
2023-04-16T12:53:18.817Z,2.10
2023-04-16T12:55:48.538Z,3.33
2023-04-16T12:58:16.653Z,3.27
2023-04-16T13:00:44.735Z,2.57
2023-04-16T13:03:12.844Z,2.50
2023-04-16T13:05:41.714Z,3.93
2023-04-16T13:08:09.727Z,2.23
2023-04-16T13:10:38.171Z,2.37
2023-04-16T13:13:07.561Z,2.90
2023-04-16T13:15:35.921Z,3.93
2023-04-16T13:18:03.982Z,3.23
2023-04-16T13:20:32.043Z,2.50
2023-04-16T13:23:00.371Z,3.63
2023-04-16T13:25:29.668Z,3.20
2023-04-16T13:27:57.669Z,4.83
2023-04-16T13:30:29.653Z,8.77
2023-04-16T13:32:58.128Z,3.47
2023-04-16T13:35:27.313Z,4.00
2023-04-16T13:37:55.527Z,4.40
2023-04-16T13:40:23.584Z,3.70
2023-04-16T13:42:51.600Z,4.03
2023-04-16T13:45:20.650Z,4.43
2023-04-16T13:47:50.265Z,4.50
2023-04-16T13:50:18.468Z,5.37
2023-04-16T13:52:46.662Z,3.87
2023-04-16T13:55:17.926Z,4.80
2023-04-16T13:57:47.153Z,5.27
2023-04-16T14:00:16.761Z,4.43
2023-04-16T14:02:46.070Z,5.07
2023-04-16T14:05:15.597Z,5.00
2023-04-16T14:07:43.658Z,4.80
2023-04-16T14:10:12.492Z,4.93
2023-04-16T14:12:41.030Z,3.30
2023-04-16T14:15:10.784Z,5.10
2023-04-16T14:17:38.877Z,4.37
2023-04-16T14:20:07.841Z,4.10
2023-04-16T14:22:37.262Z,3.10
2023-04-16T14:25:05.793Z,4.40
2023-04-16T14:27:34.450Z,4.43
2023-04-16T14:30:02.641Z,4.10
2023-04-16T14:32:30.789Z,8.83
2023-04-16T14:34:58.832Z,4.10
2023-04-16T14:37:27.405Z,6.57
2023-04-16T14:39:56.874Z,3.37
2023-04-16T14:42:25.103Z,3.80
2023-04-16T14:44:53.178Z,4.40
2023-04-16T14:47:21.245Z,3.67
2023-04-16T14:49:49.592Z,4.47
2023-04-16T14:52:17.943Z,3.83
2023-04-16T14:54:48.072Z,5.03
2023-04-16T14:57:17.767Z,3.97
2023-04-16T14:59:46.177Z,4.60
2023-04-16T15:02:15.666Z,4.97
2023-04-16T15:04:43.997Z,4.57
2023-04-16T15:07:12.257Z,5.17
2023-04-16T15:09:40.555Z,5.10
2023-04-16T15:12:09.307Z,6.97
2023-04-16T15:14:39.072Z,6.23
2023-04-16T15:17:07.173Z,5.03
2023-04-16T15:19:35.216Z,5.70
2023-04-16T15:22:03.300Z,4.20
2023-04-16T15:24:31.598Z,5.47
2023-04-16T15:26:59.694Z,5.00
2023-04-16T15:29:27.684Z,5.83
2023-04-16T15:31:57.157Z,6.37
2023-04-16T15:34:25.479Z,6.37
2023-04-16T15:36:53.515Z,6.00
2023-04-16T15:39:21.948Z,6.37
2023-04-16T15:42:00.522Z,7.87
2023-04-16T15:44:31.063Z,9.07
2023-04-16T15:47:00.823Z,6.20
2023-04-16T15:49:28.877Z,8.50
2023-04-16T15:51:57.321Z,7.17
2023-04-16T15:54:25.704Z,7.73
2023-04-16T15:56:53.732Z,8.57
2023-04-16T15:59:21.761Z,7.70
2023-04-16T16:01:49.870Z,7.20
2023-04-16T16:04:19.393Z,10.83
2023-04-16T16:06:47.518Z,8.57
2023-04-16T16:09:15.692Z,7.70
2023-04-16T16:11:43.670Z,8.40
2023-04-16T16:14:11.924Z,9.77
2023-04-16T16:16:40.282Z,8.80
2023-04-16T16:19:08.400Z,10.67
2023-04-16T16:21:37.939Z,11.60
2023-04-16T16:24:06.140Z,10.53
2023-04-16T16:26:34.210Z,9.73
2023-04-16T16:29:02.604Z,10.93
2023-04-16T16:31:30.719Z,10.67
2023-04-16T16:33:58.777Z,10.37
2023-04-16T16:36:27.459Z,11.87
2023-04-16T16:38:57.303Z,10.47
2023-04-16T16:41:25.475Z,12.03
2023-04-16T16:43:56.180Z,9.93
2023-04-16T16:46:24.317Z,10.17
2023-04-16T16:48:52.602Z,9.67
2023-04-16T16:51:20.779Z,8.57
2023-04-16T16:53:48.744Z,9.67
2023-04-16T16:56:18.336Z,9.43
2023-04-16T16:58:46.458Z,9.07
2023-04-16T17:01:14.528Z,11.90
2023-04-16T17:03:42.668Z,9.70
2023-04-16T17:06:11.288Z,10.50
2023-04-16T17:08:39.308Z,11.43
2023-04-16T17:11:07.323Z,13.07
2023-04-16T17:13:37.056Z,12.23
2023-04-16T17:16:05.595Z,12.33
2023-04-16T17:18:35.444Z,12.10
2023-04-16T17:21:03.602Z,10.47
2023-04-16T17:23:31.609Z,13.63
2023-04-16T17:26:01.852Z,10.47
2023-04-16T17:28:29.857Z,12.87
2023-04-16T17:30:59.464Z,11.73
2023-04-16T17:33:27.800Z,13.53
2023-04-16T17:35:55.963Z,10.83
2023-04-16T17:38:24.224Z,11.23
2023-04-16T17:40:52.293Z,12.23
2023-04-16T17:43:20.789Z,11.37
2023-04-16T17:45:48.763Z,10.73
2023-04-16T17:48:18.139Z,10.93
2023-04-16T17:50:46.171Z,11.77
2023-04-16T17:53:14.428Z,10.53
2023-04-16T17:55:50.519Z,10.27
2023-04-16T17:58:18.510Z,9.63
2023-04-16T18:00:46.510Z,10.50
2023-04-16T18:03:20.695Z,9.90
2023-04-16T18:49:10.408Z,8.33
2023-04-16T18:51:38.745Z,7.80
2023-04-16T18:54:06.803Z,7.87
2023-04-16T18:56:34.793Z,7.93
2023-04-16T18:59:02.860Z,8.43
2023-04-16T19:01:31.055Z,6.73
2023-04-16T19:03:59.234Z,7.47
2023-04-16T19:06:29.219Z,7.13
2023-04-16T19:08:57.204Z,8.30
2023-04-16T19:11:25.278Z,7.37
2023-04-16T19:13:54.011Z,8.77
2023-04-16T19:16:22.083Z,8.53
2023-04-16T19:18:50.661Z,6.97
2023-04-16T19:21:18.641Z,8.27
2023-04-16T19:23:48.742Z,7.70
2023-04-16T19:26:16.808Z,7.50
2023-04-16T19:28:45.658Z,8.03
2023-04-16T19:31:13.699Z,10.17
2023-04-16T19:33:41.972Z,7.40
2023-04-16T19:36:10.078Z,9.13
2023-04-16T19:38:38.084Z,6.80
2023-04-16T19:41:07.428Z,8.33
2023-04-16T19:43:36.960Z,7.30
2023-04-16T19:46:05.041Z,7.20
2023-04-16T19:48:33.062Z,8.17
2023-04-16T19:51:03.299Z,7.37
2023-04-16T19:53:31.354Z,6.93
2023-04-16T19:55:59.372Z,8.87
2023-04-16T19:58:28.785Z,7.33
2023-04-16T20:00:56.860Z,7.87
2023-04-16T20:03:24.977Z,7.43
2023-04-16T20:05:53.046Z,7.83
2023-04-16T20:08:21.186Z,7.17
2023-04-16T20:10:49.165Z,6.57
2023-04-16T20:13:18.592Z,6.53
2023-04-16T20:15:48.299Z,6.87
2023-04-16T20:18:16.357Z,6.80
2023-04-16T20:20:44.375Z,6.00
2023-04-16T20:23:12.367Z,7.40
2023-04-16T20:25:42.480Z,7.30
2023-04-16T20:28:10.529Z,5.97
2023-04-16T20:30:39.699Z,5.90
2023-04-16T20:33:09.640Z,6.63
2023-04-16T20:35:37.705Z,4.63
2023-04-16T20:38:05.694Z,5.13
2023-04-16T20:40:34.080Z,4.60
2023-04-16T20:43:02.067Z,5.57
2023-04-16T20:45:32.224Z,5.63
2023-04-16T20:48:00.488Z,5.70
2023-04-16T20:50:30.274Z,6.33
2023-04-16T20:52:58.257Z,6.13
2023-04-16T20:55:26.581Z,5.77
2023-04-16T20:57:54.580Z,4.47
2023-04-16T21:00:22.823Z,4.80
2023-04-16T21:02:51.044Z,4.97
2023-04-16T21:05:21.411Z,6.33
2023-04-16T21:07:50.846Z,4.30
2023-04-16T21:10:20.265Z,5.10
2023-04-16T21:12:48.455Z,4.13
2023-04-16T21:15:16.547Z,4.90
2023-04-16T21:17:44.629Z,4.40
2023-04-16T21:20:14.105Z,3.87
2023-04-16T21:22:42.147Z,4.83
2023-04-16T21:25:12.016Z,4.47
2023-04-16T21:27:39.995Z,3.83
2023-04-16T21:30:09.506Z,5.63
2023-04-16T21:32:37.515Z,4.27
2023-04-16T21:35:06.391Z,4.47
2023-04-16T21:37:34.403Z,5.30
2023-04-16T21:40:02.547Z,4.83
2023-04-16T21:42:32.520Z,5.17
2023-04-16T21:45:00.678Z,5.40
2023-04-16T21:47:28.706Z,5.37
2023-04-16T21:49:56.671Z,5.53
2023-04-16T21:52:24.712Z,4.30
2023-04-16T21:54:52.748Z,4.87
2023-04-16T21:57:20.752Z,5.23
2023-04-16T21:59:50.123Z,5.57
2023-04-16T22:02:18.238Z,5.73
2023-04-16T22:04:46.318Z,5.70
2023-04-16T22:07:16.738Z,7.43
2023-04-16T22:09:44.806Z,6.50
2023-04-16T22:12:12.838Z,7.17
2023-04-16T22:14:49.093Z,7.40
2023-04-16T22:17:29.043Z,6.07
2023-04-16T22:19:57.173Z,5.77
2023-04-16T22:22:25.143Z,6.17
2023-04-16T22:24:53.486Z,7.53
2023-04-16T22:27:21.486Z,7.70
2023-04-16T22:29:49.472Z,6.33
2023-04-16T22:32:17.688Z,5.50
2023-04-16T22:34:47.127Z,6.13
2023-04-16T22:37:15.654Z,6.20
2023-04-16T22:39:43.656Z,6.20
2023-04-16T22:42:12.136Z,7.07
2023-04-16T22:44:40.127Z,7.70
2023-04-16T22:47:08.164Z,6.57
2023-04-16T22:49:36.250Z,6.17
2023-04-16T22:52:05.711Z,6.53
2023-04-16T22:54:34.242Z,7.07
2023-04-16T22:57:02.206Z,7.73
2023-04-16T22:59:31.027Z,8.97
2023-04-16T23:01:59.155Z,7.00
2023-04-16T23:04:27.326Z,7.47
2023-04-16T23:06:55.671Z,7.37
2023-04-16T23:09:25.103Z,6.03
2023-04-16T23:11:53.172Z,6.53
2023-04-16T23:14:21.396Z,7.03
2023-04-16T23:16:49.407Z,6.43
2023-04-16T23:19:17.428Z,6.77
2023-04-16T23:21:45.653Z,9.17
2023-04-16T23:24:13.640Z,7.13
2023-04-16T23:26:42.982Z,6.17
2023-04-16T23:29:11.312Z,8.07
2023-04-16T23:31:39.539Z,4.57
2023-04-16T23:34:07.605Z,6.40
2023-04-16T23:36:35.615Z,5.70
2023-04-16T23:39:03.574Z,7.07
2023-04-16T23:41:31.543Z,5.10
2023-04-16T23:44:00.908Z,4.50
2023-04-16T23:46:28.958Z,5.00
2023-04-16T23:48:56.943Z,4.87
2023-04-16T23:51:24.915Z,5.37
2023-04-16T23:53:52.913Z,4.73
2023-04-16T23:56:21.170Z,4.27
2023-04-16T23:58:49.174Z,3.60
